sensor_id;sensor_type;location;lat;lon;timestamp;pressure;altitude;pressure_sealevel;temperature;humidity
47104;BME280;32853;52.164;5.400;2023-04-01T00:00:55;98932.75;;;12.16;100.00
47104;BME280;32853;52.164;5.400;2023-04-01T00:03:21;98958.84;;;12.40;100.00
47104;BME280;32853;52.164;5.400;2023-04-01T00:05:48;98949.69;;;12.34;100.00
47104;BME280;32853;52.164;5.400;2023-04-01T00:08:14;98959.22;;;12.35;100.00
47104;BME280;32853;52.164;5.400;2023-04-01T00:10:40;98951.81;;;12.29;100.00
47104;BME280;32853;52.164;5.400;2023-04-01T00:13:05;98961.34;;;12.30;100.00
47104;BME280;32853;52.164;5.400;2023-04-01T00:15:31;98966.97;;;12.37;100.00
47104;BME280;32853;52.164;5.400;2023-04-01T00:18:04;98974.09;;;12.24;100.00
47104;BME280;32853;52.164;5.400;2023-04-01T00:20:30;98970.91;;;12.31;100.00
47104;BME280;32853;52.164;5.400;2023-04-01T00:22:56;98979.47;;;12.22;100.00
47104;BME280;32853;52.164;5.400;2023-04-01T00:25:22;98959.44;;;12.21;100.00
47104;BME280;32853;52.164;5.400;2023-04-01T00:27:48;98935.59;;;12.13;100.00
47104;BME280;32853;52.164;5.400;2023-04-01T00:30:18;98976.88;;;12.44;100.00
47104;BME280;32853;52.164;5.400;2023-04-01T00:32:46;98927.63;;;12.14;100.00
47104;BME280;32853;52.164;5.400;2023-04-01T00:35:15;98951.22;;;12.26;100.00
47104;BME280;32853;52.164;5.400;2023-04-01T00:37:49;98976.00;;;12.21;100.00
47104;BME280;32853;52.164;5.400;2023-04-01T00:40:34;98969.31;;;12.29;100.00
47104;BME280;32853;52.164;5.400;2023-04-01T00:43:19;98954.53;;;12.16;100.00
47104;BME280;32853;52.164;5.400;2023-04-01T00:45:48;98976.59;;;12.25;100.00
47104;BME280;32853;52.164;5.400;2023-04-01T00:48:18;98976.94;;;12.09;100.00
47104;BME280;32853;52.164;5.400;2023-04-01T00:50:49;98980.88;;;12.15;100.00
47104;BME280;32853;52.164;5.400;2023-04-01T00:53:18;98980.41;;;12.21;100.00
47104;BME280;32853;52.164;5.400;2023-04-01T00:55:50;98948.81;;;12.00;100.00
47104;BME280;32853;52.164;5.400;2023-04-01T00:58:18;98946.88;;;11.91;100.00
47104;BME280;32853;52.164;5.400;2023-04-01T01:00:47;98985.88;;;12.18;100.00
47104;BME280;32853;52.164;5.400;2023-04-01T01:03:18;98969.28;;;12.06;100.00
47104;BME280;32853;52.164;5.400;2023-04-01T01:08:42;98997.53;;;12.14;100.00
47104;BME280;32853;52.164;5.400;2023-04-01T01:11:10;98996.19;;;11.97;100.00
47104;BME280;32853;52.164;5.400;2023-04-01T01:13:43;98991.09;;;12.07;100.00
47104;BME280;32853;52.164;5.400;2023-04-01T01:16:32;98991.56;;;12.01;100.00
47104;BME280;32853;52.164;5.400;2023-04-01T01:25:33;98997.78;;;12.11;100.00
47104;BME280;32853;52.164;5.400;2023-04-01T01:31:02;99002.03;;;12.01;100.00
47104;BME280;32853;52.164;5.400;2023-04-01T01:36:35;99002.53;;;12.17;100.00
47104;BME280;32853;52.164;5.400;2023-04-01T01:39:04;98945.28;;;11.77;100.00
47104;BME280;32853;52.164;5.400;2023-04-01T01:41:35;98966.75;;;11.58;100.00
47104;BME280;32853;52.164;5.400;2023-04-01T01:44:03;99006.63;;;11.86;100.00
47104;BME280;32853;52.164;5.400;2023-04-01T01:46:38;99006.19;;;11.92;100.00
47104;BME280;32853;52.164;5.400;2023-04-01T01:49:06;98986.69;;;11.48;100.00
47104;BME280;32853;52.164;5.400;2023-04-01T01:51:55;99000.34;;;11.64;100.00
47104;BME280;32853;52.164;5.400;2023-04-01T01:54:21;98982.28;;;11.49;100.00
47104;BME280;32853;52.164;5.400;2023-04-01T01:56:49;99010.19;;;11.85;100.00
47104;BME280;32853;52.164;5.400;2023-04-01T01:59:17;99009.78;;;11.78;100.00
47104;BME280;32853;52.164;5.400;2023-04-01T02:01:53;99009.25;;;11.86;100.00
47104;BME280;32853;52.164;5.400;2023-04-01T02:04:21;98967.19;;;11.52;100.00
47104;BME280;32853;52.164;5.400;2023-04-01T02:10:06;99013.66;;;11.85;100.00
47104;BME280;32853;52.164;5.400;2023-04-01T02:12:34;98963.41;;;11.56;100.00
47104;BME280;32853;52.164;5.400;2023-04-01T02:15:07;99012.94;;;11.83;100.00
47104;BME280;32853;52.164;5.400;2023-04-01T02:17:37;98972.94;;;11.57;100.00
47104;BME280;32853;52.164;5.400;2023-04-01T02:20:17;99015.03;;;11.78;100.00
47104;BME280;32853;52.164;5.400;2023-04-01T02:22:50;99018.16;;;11.83;100.00
47104;BME280;32853;52.164;5.400;2023-04-01T02:25:29;99021.34;;;11.76;100.00
47104;BME280;32853;52.164;5.400;2023-04-01T02:28:10;99023.09;;;11.88;100.00
47104;BME280;32853;52.164;5.400;2023-04-01T02:30:39;98965.03;;;11.46;100.00
47104;BME280;32853;52.164;5.400;2023-04-01T02:33:06;99022.84;;;11.67;100.00
47104;BME280;32853;52.164;5.400;2023-04-01T02:35:45;99033.56;;;11.64;100.00
47104;BME280;32853;52.164;5.400;2023-04-01T02:38:29;99029.41;;;11.73;100.00
47104;BME280;32853;52.164;5.400;2023-04-01T02:41:00;98950.34;;;11.32;100.00
47104;BME280;32853;52.164;5.400;2023-04-01T02:43:28;99028.81;;;11.69;100.00
47104;BME280;32853;52.164;5.400;2023-04-01T02:45:53;99018.44;;;11.68;100.00
47104;BME280;32853;52.164;5.400;2023-04-01T02:48:21;99031.59;;;11.79;100.00
47104;BME280;32853;52.164;5.400;2023-04-01T02:50:47;99013.81;;;11.71;100.00
47104;BME280;32853;52.164;5.400;2023-04-01T02:53:18;99028.81;;;11.93;100.00
47104;BME280;32853;52.164;5.400;2023-04-01T02:55:44;99027.97;;;11.92;100.00
47104;BME280;32853;52.164;5.400;2023-04-01T02:58:10;99029.09;;;11.77;100.00
47104;BME280;32853;52.164;5.400;2023-04-01T03:00:36;99036.09;;;11.77;100.00
47104;BME280;32853;52.164;5.400;2023-04-01T03:03:01;99023.50;;;11.58;100.00
47104;BME280;32853;52.164;5.400;2023-04-01T03:05:27;99009.47;;;11.35;100.00
47104;BME280;32853;52.164;5.400;2023-04-01T03:07:54;99040.47;;;11.65;100.00
47104;BME280;32853;52.164;5.400;2023-04-01T03:10:19;99024.34;;;11.58;100.00
47104;BME280;32853;52.164;5.400;2023-04-01T03:12:45;99051.13;;;11.62;100.00
47104;BME280;32853;52.164;5.400;2023-04-01T03:15:12;98950.44;;;11.07;100.00
47104;BME280;32853;52.164;5.400;2023-04-01T03:17:41;99054.44;;;11.77;100.00
47104;BME280;32853;52.164;5.400;2023-04-01T03:20:08;99053.25;;;11.57;100.00
47104;BME280;32853;52.164;5.400;2023-04-01T03:22:37;99061.28;;;11.67;100.00
47104;BME280;32853;52.164;5.400;2023-04-01T03:25:05;99056.78;;;11.69;100.00
47104;BME280;32853;52.164;5.400;2023-04-01T03:27:32;99072.06;;;11.62;100.00
47104;BME280;32853;52.164;5.400;2023-04-01T03:29:58;99071.25;;;11.61;100.00
47104;BME280;32853;52.164;5.400;2023-04-01T03:32:23;99026.88;;;11.23;100.00
47104;BME280;32853;52.164;5.400;2023-04-01T03:34:49;99074.50;;;11.65;100.00
47104;BME280;32853;52.164;5.400;2023-04-01T03:37:22;99075.50;;;11.75;100.00
47104;BME280;32853;52.164;5.400;2023-04-01T03:39:51;99074.34;;;11.79;100.00
47104;BME280;32853;52.164;5.400;2023-04-01T03:42:21;99035.78;;;11.57;100.00
47104;BME280;32853;52.164;5.400;2023-04-01T03:44:51;99037.31;;;11.60;100.00
47104;BME280;32853;52.164;5.400;2023-04-01T03:47:32;99082.81;;;11.83;100.00
47104;BME280;32853;52.164;5.400;2023-04-01T03:50:02;99084.16;;;11.88;100.00
47104;BME280;32853;52.164;5.400;2023-04-01T03:52:28;99089.41;;;11.88;100.00
47104;BME280;32853;52.164;5.400;2023-04-01T03:54:53;99093.06;;;11.86;100.00
47104;BME280;32853;52.164;5.400;2023-04-01T03:57:18;99095.91;;;11.83;100.00
47104;BME280;32853;52.164;5.400;2023-04-01T03:59:43;99098.09;;;11.89;100.00
47104;BME280;32853;52.164;5.400;2023-04-01T04:02:09;99093.28;;;11.83;100.00
47104;BME280;32853;52.164;5.400;2023-04-01T04:04:34;99096.97;;;11.80;100.00
47104;BME280;32853;52.164;5.400;2023-04-01T04:07:01;99100.72;;;11.89;100.00
47104;BME280;32853;52.164;5.400;2023-04-01T04:09:27;99108.34;;;11.92;100.00
47104;BME280;32853;52.164;5.400;2023-04-01T04:11:52;99108.78;;;11.86;100.00
47104;BME280;32853;52.164;5.400;2023-04-01T04:14:18;99099.75;;;11.90;100.00
47104;BME280;32853;52.164;5.400;2023-04-01T04:16:43;99127.28;;;11.96;100.00
47104;BME280;32853;52.164;5.400;2023-04-01T04:19:08;99100.72;;;11.89;100.00
47104;BME280;32853;52.164;5.400;2023-04-01T04:21:39;99106.78;;;11.89;100.00
47104;BME280;32853;52.164;5.400;2023-04-01T04:24:05;99124.72;;;12.07;100.00
47104;BME280;32853;52.164;5.400;2023-04-01T04:26:30;99127.81;;;12.01;100.00
47104;BME280;32853;52.164;5.400;2023-04-01T04:28:58;99128.22;;;11.95;100.00
47104;BME280;32853;52.164;5.400;2023-04-01T04:31:36;99107.84;;;11.87;100.00
47104;BME280;32853;52.164;5.400;2023-04-01T04:34:03;99146.69;;;11.93;100.00
47104;BME280;32853;52.164;5.400;2023-04-01T04:36:30;99133.03;;;12.01;100.00
47104;BME280;32853;52.164;5.400;2023-04-01T04:39:15;99145.06;;;12.03;100.00
47104;BME280;32853;52.164;5.400;2023-04-01T04:41:57;99154.28;;;12.09;100.00
47104;BME280;32853;52.164;5.400;2023-04-01T04:44:26;99156.75;;;11.99;100.00
47104;BME280;32853;52.164;5.400;2023-04-01T04:46:51;99148.09;;;11.73;100.00
47104;BME280;32853;52.164;5.400;2023-04-01T04:49:17;99145.97;;;11.91;100.00
47104;BME280;32853;52.164;5.400;2023-04-01T04:52:01;99151.03;;;11.81;100.00
47104;BME280;32853;52.164;5.400;2023-04-01T04:54:29;99167.34;;;11.85;100.00
47104;BME280;32853;52.164;5.400;2023-04-01T04:56:54;99183.28;;;11.82;100.00
47104;BME280;32853;52.164;5.400;2023-04-01T04:59:20;99169.66;;;11.89;100.00
47104;BME280;32853;52.164;5.400;2023-04-01T05:01:45;99185.41;;;11.51;100.00
47104;BME280;32853;52.164;5.400;2023-04-01T05:04:10;99187.06;;;11.78;100.00
47104;BME280;32853;52.164;5.400;2023-04-01T05:06:42;99197.75;;;11.87;100.00
47104;BME280;32853;52.164;5.400;2023-04-01T05:09:07;99201.69;;;11.93;100.00
47104;BME280;32853;52.164;5.400;2023-04-01T05:11:36;99205.31;;;11.79;100.00
47104;BME280;32853;52.164;5.400;2023-04-01T05:14:01;99185.63;;;11.61;100.00
47104;BME280;32853;52.164;5.400;2023-04-01T05:16:27;99212.00;;;11.83;100.00
47104;BME280;32853;52.164;5.400;2023-04-01T05:18:52;99195.03;;;11.76;100.00
47104;BME280;32853;52.164;5.400;2023-04-01T05:21:17;99211.50;;;11.66;100.00
47104;BME280;32853;52.164;5.400;2023-04-01T05:23:43;99220.66;;;11.97;100.00
47104;BME280;32853;52.164;5.400;2023-04-01T05:26:14;99196.06;;;11.74;100.00
47104;BME280;32853;52.164;5.400;2023-04-01T05:28:48;99233.75;;;12.09;100.00
47104;BME280;32853;52.164;5.400;2023-04-01T05:31:13;99194.84;;;11.67;100.00
47104;BME280;32853;52.164;5.400;2023-04-01T05:33:38;99241.59;;;12.09;100.00
47104;BME280;32853;52.164;5.400;2023-04-01T05:36:11;99237.66;;;11.78;100.00
47104;BME280;32853;52.164;5.400;2023-04-01T05:38:47;99240.06;;;11.94;100.00
47104;BME280;32853;52.164;5.400;2023-04-01T05:41:14;99247.19;;;11.92;100.00
47104;BME280;32853;52.164;5.400;2023-04-01T05:43:43;99196.72;;;11.64;100.00
47104;BME280;32853;52.164;5.400;2023-04-01T05:46:10;99267.63;;;12.00;100.00
47104;BME280;32853;52.164;5.400;2023-04-01T05:48:38;99260.50;;;11.76;100.00
47104;BME280;32853;52.164;5.400;2023-04-01T05:51:20;99213.00;;;11.44;100.00
47104;BME280;32853;52.164;5.400;2023-04-01T05:53:47;99260.63;;;11.87;100.00
47104;BME280;32853;52.164;5.400;2023-04-01T05:56:12;99256.94;;;11.90;100.00
47104;BME280;32853;52.164;5.400;2023-04-01T05:58:38;99268.16;;;11.92;100.00
47104;BME280;32853;52.164;5.400;2023-04-01T06:01:08;99277.78;;;11.91;100.00
47104;BME280;32853;52.164;5.400;2023-04-01T06:03:38;99269.16;;;12.02;100.00
47104;BME280;32853;52.164;5.400;2023-04-01T06:06:04;99283.44;;;11.98;100.00
47104;BME280;32853;52.164;5.400;2023-04-01T06:08:43;99262.06;;;11.91;100.00
47104;BME280;32853;52.164;5.400;2023-04-01T06:14:33;99295.28;;;11.91;100.00
47104;BME280;32853;52.164;5.400;2023-04-01T06:17:07;99296.88;;;11.81;100.00
47104;BME280;32853;52.164;5.400;2023-04-01T06:22:34;99301.38;;;11.91;100.00
47104;BME280;32853;52.164;5.400;2023-04-01T06:28:05;99300.88;;;11.86;100.00
47104;BME280;32853;52.164;5.400;2023-04-01T06:30:50;99313.97;;;11.86;100.00
47104;BME280;32853;52.164;5.400;2023-04-01T06:33:46;99319.91;;;11.88;100.00
47104;BME280;32853;52.164;5.400;2023-04-01T06:42:06;99337.72;;;11.83;100.00
47104;BME280;32853;52.164;5.400;2023-04-01T06:54:01;99322.53;;;11.76;100.00
47104;BME280;32853;52.164;5.400;2023-04-01T06:56:32;99351.84;;;11.68;100.00
47104;BME280;32853;52.164;5.400;2023-04-01T06:59:04;99332.47;;;11.45;100.00
47104;BME280;32853;52.164;5.400;2023-04-01T07:04:43;99370.81;;;11.72;100.00
47104;BME280;32853;52.164;5.400;2023-04-01T07:07:35;99333.72;;;11.78;100.00
47104;BME280;32853;52.164;5.400;2023-04-01T07:12:55;99319.03;;;11.62;100.00
47104;BME280;32853;52.164;5.400;2023-04-01T07:15:38;99363.88;;;11.71;100.00
47104;BME280;32853;52.164;5.400;2023-04-01T07:18:19;99399.66;;;12.10;100.00
47104;BME280;32853;52.164;5.400;2023-04-01T07:20:48;99397.56;;;11.89;100.00
47104;BME280;32853;52.164;5.400;2023-04-01T07:23:45;99400.69;;;12.07;100.00
47104;BME280;32853;52.164;5.400;2023-04-01T07:26:20;99409.72;;;12.03;100.00
47104;BME280;32853;52.164;5.400;2023-04-01T07:28:48;99414.63;;;11.82;100.00
47104;BME280;32853;52.164;5.400;2023-04-01T07:34:05;99419.16;;;12.06;100.00
47104;BME280;32853;52.164;5.400;2023-04-01T07:36:42;99424.69;;;12.14;100.00
47104;BME280;32853;52.164;5.400;2023-04-01T07:42:14;99438.44;;;12.17;100.00
47104;BME280;32853;52.164;5.400;2023-04-01T07:48:06;99442.44;;;12.23;100.00
47104;BME280;32853;52.164;5.400;2023-04-01T07:50:41;99425.09;;;12.08;100.00
47104;BME280;32853;52.164;5.400;2023-04-01T07:59:21;99424.06;;;11.85;100.00
47104;BME280;32853;52.164;5.400;2023-04-01T08:16:26;99476.50;;;12.23;100.00
47104;BME280;32853;52.164;5.400;2023-04-01T08:21:50;99496.31;;;12.40;100.00
47104;BME280;32853;52.164;5.400;2023-04-01T08:24:33;99505.22;;;12.25;100.00
47104;BME280;32853;52.164;5.400;2023-04-01T08:27:05;99495.97;;;12.19;100.00
47104;BME280;32853;52.164;5.400;2023-04-01T08:29:46;99473.56;;;12.28;100.00
47104;BME280;32853;52.164;5.400;2023-04-01T08:32:25;99515.81;;;12.36;100.00
47104;BME280;32853;52.164;5.400;2023-04-01T08:35:30;99526.81;;;12.41;100.00
47104;BME280;32853;52.164;5.400;2023-04-01T08:38:01;99494.00;;;11.70;100.00
47104;BME280;32853;52.164;5.400;2023-04-01T08:40:55;99490.72;;;11.93;100.00
47104;BME280;32853;52.164;5.400;2023-04-01T08:43:36;99533.53;;;12.19;100.00
47104;BME280;32853;52.164;5.400;2023-04-01T08:46:57;99521.47;;;12.30;100.00
47104;BME280;32853;52.164;5.400;2023-04-01T08:55:27;99543.50;;;12.27;100.00
47104;BME280;32853;52.164;5.400;2023-04-01T09:00:38;99557.91;;;12.07;100.00
47104;BME280;32853;52.164;5.400;2023-04-01T09:13:48;99573.69;;;12.20;100.00
47104;BME280;32853;52.164;5.400;2023-04-01T09:16:26;99570.28;;;12.05;100.00
47104;BME280;32853;52.164;5.400;2023-04-01T09:30:32;99593.31;;;12.40;100.00
47104;BME280;32853;52.164;5.400;2023-04-01T09:38:29;99601.00;;;12.56;100.00
47104;BME280;32853;52.164;5.400;2023-04-01T09:54:26;99620.94;;;12.71;100.00
47104;BME280;32853;52.164;5.400;2023-04-01T09:59:51;99619.13;;;12.97;100.00
47104;BME280;32853;52.164;5.400;2023-04-01T10:14:04;99638.78;;;13.29;100.00
47104;BME280;32853;52.164;5.400;2023-04-01T10:20:12;99638.03;;;13.27;100.00
47104;BME280;32853;52.164;5.400;2023-04-01T10:25:21;99643.06;;;13.18;100.00
47104;BME280;32853;52.164;5.400;2023-04-01T10:36:56;99633.31;;;12.94;100.00
47104;BME280;32853;52.164;5.400;2023-04-01T10:40:05;99648.44;;;13.03;100.00
47104;BME280;32853;52.164;5.400;2023-04-01T10:51:39;99671.63;;;13.48;100.00
47104;BME280;32853;52.164;5.400;2023-04-01T10:57:28;99617.31;;;13.48;100.00
47104;BME280;32853;52.164;5.400;2023-04-01T11:05:53;99682.19;;;13.72;100.00
47104;BME280;32853;52.164;5.400;2023-04-01T11:15:06;99677.53;;;13.00;100.00
47104;BME280;32853;52.164;5.400;2023-04-01T11:34:53;99714.00;;;13.30;100.00
47104;BME280;32853;52.164;5.400;2023-04-01T11:42:54;99700.34;;;12.60;100.00
47104;BME280;32853;52.164;5.400;2023-04-01T11:49:12;99746.59;;;13.01;100.00
47104;BME280;32853;52.164;5.400;2023-04-01T11:57:12;99751.50;;;13.32;100.00
47104;BME280;32853;52.164;5.400;2023-04-01T12:17:04;99769.63;;;13.10;100.00
47104;BME280;32853;52.164;5.400;2023-04-01T12:19:58;99775.13;;;13.58;100.00
47104;BME280;32853;52.164;5.400;2023-04-01T12:22:54;99773.63;;;13.79;100.00
47104;BME280;32853;52.164;5.400;2023-04-01T12:45:38;99818.81;;;13.84;100.00
47104;BME280;32853;52.164;5.400;2023-04-01T12:54:08;99823.13;;;13.73;100.00
47104;BME280;32853;52.164;5.400;2023-04-01T12:57:04;99818.38;;;14.03;100.00
47104;BME280;32853;52.164;5.400;2023-04-01T13:02:20;99780.88;;;13.63;100.00
47104;BME280;32853;52.164;5.400;2023-04-01T13:05:01;99835.81;;;14.04;100.00
47104;BME280;32853;52.164;5.400;2023-04-01T13:10:54;99841.81;;;13.93;100.00
47104;BME280;32853;52.164;5.400;2023-04-01T13:13:53;99849.09;;;13.90;100.00
47104;BME280;32853;52.164;5.400;2023-04-01T13:16:28;99851.63;;;13.79;100.00
47104;BME280;32853;52.164;5.400;2023-04-01T13:18:57;99855.63;;;13.97;100.00
47104;BME280;32853;52.164;5.400;2023-04-01T13:24:38;99799.16;;;13.52;100.00
47104;BME280;32853;52.164;5.400;2023-04-01T13:27:18;99861.81;;;13.71;100.00
47104;BME280;32853;52.164;5.400;2023-04-01T13:38:51;99879.47;;;13.56;100.00
47104;BME280;32853;52.164;5.400;2023-04-01T13:47:23;99877.16;;;13.64;100.00
47104;BME280;32853;52.164;5.400;2023-04-01T13:59:03;99847.78;;;13.19;100.00
47104;BME280;32853;52.164;5.400;2023-04-01T14:07:21;99923.50;;;12.98;100.00
47104;BME280;32853;52.164;5.400;2023-04-01T14:18:28;99944.34;;;12.87;100.00
47104;BME280;32853;52.164;5.400;2023-04-01T14:26:50;99948.22;;;12.67;100.00
47104;BME280;32853;52.164;5.400;2023-04-01T14:32:37;99957.78;;;12.68;100.00
47104;BME280;32853;52.164;5.400;2023-04-01T14:35:29;99967.25;;;12.57;100.00
47104;BME280;32853;52.164;5.400;2023-04-01T14:38:26;99925.00;;;12.47;100.00
47104;BME280;32853;52.164;5.400;2023-04-01T14:50:28;99996.75;;;12.60;100.00
47104;BME280;32853;52.164;5.400;2023-04-01T14:55:44;100002.63;;;12.49;100.00
47104;BME280;32853;52.164;5.400;2023-04-01T14:58:17;99993.56;;;12.27;100.00
47104;BME280;32853;52.164;5.400;2023-04-01T15:06:12;100032.63;;;12.60;100.00
47104;BME280;32853;52.164;5.400;2023-04-01T15:09:09;100026.78;;;12.12;100.00
47104;BME280;32853;52.164;5.400;2023-04-01T15:17:19;100047.22;;;11.91;100.00
47104;BME280;32853;52.164;5.400;2023-04-01T15:26:07;100045.97;;;11.82;100.00
47104;BME280;32853;52.164;5.400;2023-04-01T15:40:20;100088.22;;;12.22;100.00
47104;BME280;32853;52.164;5.400;2023-04-01T15:43:06;100032.78;;;11.68;100.00
47104;BME280;32853;52.164;5.400;2023-04-01T15:50:55;100116.84;;;11.95;100.00
47104;BME280;32853;52.164;5.400;2023-04-01T15:53:37;100121.59;;;11.88;100.00
47104;BME280;32853;52.164;5.400;2023-04-01T15:56:15;100126.31;;;11.98;100.00
47104;BME280;32853;52.164;5.400;2023-04-01T15:59:19;100130.69;;;12.13;100.00
47104;BME280;32853;52.164;5.400;2023-04-01T16:02:30;100129.28;;;11.91;100.00
47104;BME280;32853;52.164;5.400;2023-04-01T16:24:44;100181.06;;;11.71;100.00
47104;BME280;32853;52.164;5.400;2023-04-01T16:29:58;100204.31;;;11.28;100.00
47104;BME280;32853;52.164;5.400;2023-04-01T16:32:50;100200.84;;;10.94;100.00
47104;BME280;32853;52.164;5.400;2023-04-01T16:35:34;100211.94;;;10.99;100.00
47104;BME280;32853;52.164;5.400;2023-04-01T16:41:11;100220.00;;;11.12;100.00
47104;BME280;32853;52.164;5.400;2023-04-01T16:43:46;100212.13;;;11.12;100.00
47104;BME280;32853;52.164;5.400;2023-04-01T16:48:58;100238.09;;;10.99;100.00
47104;BME280;32853;52.164;5.400;2023-04-01T16:51:48;100241.09;;;11.09;100.00
47104;BME280;32853;52.164;5.400;2023-04-01T16:57:27;100249.84;;;11.08;100.00
47104;BME280;32853;52.164;5.400;2023-04-01T17:02:43;100226.09;;;10.61;100.00
47104;BME280;32853;52.164;5.400;2023-04-01T17:05:12;100264.19;;;11.01;100.00
47104;BME280;32853;52.164;5.400;2023-04-01T17:11:18;100281.72;;;10.99;100.00
47104;BME280;32853;52.164;5.400;2023-04-01T17:17:12;100302.19;;;10.91;100.00
47104;BME280;32853;52.164;5.400;2023-04-01T17:22:55;100317.81;;;10.92;100.00
47104;BME280;32853;52.164;5.400;2023-04-01T17:25:25;100327.47;;;10.73;100.00
47104;BME280;32853;52.164;5.400;2023-04-01T17:39:33;100346.00;;;10.68;100.00
47104;BME280;32853;52.164;5.400;2023-04-01T17:42:22;100366.78;;;10.53;100.00
47104;BME280;32853;52.164;5.400;2023-04-01T17:45:28;100203.06;;;9.59;100.00
47104;BME280;32853;52.164;5.400;2023-04-01T17:48:06;100375.38;;;10.56;100.00
47104;BME280;32853;52.164;5.400;2023-04-01T17:51:04;100375.59;;;10.33;100.00
47104;BME280;32853;52.164;5.400;2023-04-01T17:53:41;100394.44;;;10.39;100.00
47104;BME280;32853;52.164;5.400;2023-04-01T17:56:34;100392.97;;;10.34;100.00
47104;BME280;32853;52.164;5.400;2023-04-01T18:07:52;100418.00;;;10.94;100.00
47104;BME280;32853;52.164;5.400;2023-04-01T18:10:41;100430.41;;;10.72;100.00
47104;BME280;32853;52.164;5.400;2023-04-01T18:18:52;100448.06;;;10.86;100.00
47104;BME280;32853;52.164;5.400;2023-04-01T18:21:43;100456.69;;;10.69;100.00
47104;BME280;32853;52.164;5.400;2023-04-01T18:27:29;100477.75;;;10.47;100.00
47104;BME280;32853;52.164;5.400;2023-04-01T18:32:51;100487.06;;;10.53;100.00
47104;BME280;32853;52.164;5.400;2023-04-01T18:38:07;100468.72;;;10.54;100.00
47104;BME280;32853;52.164;5.400;2023-04-01T18:41:14;100477.31;;;10.17;100.00
47104;BME280;32853;52.164;5.400;2023-04-01T18:43:52;100473.72;;;10.19;100.00
47104;BME280;32853;52.164;5.400;2023-04-01T18:46:34;100518.66;;;10.48;100.00
47104;BME280;32853;52.164;5.400;2023-04-01T18:51:55;100539.66;;;10.46;100.00
47104;BME280;32853;52.164;5.400;2023-04-01T18:54:45;100542.63;;;10.58;100.00
47104;BME280;32853;52.164;5.400;2023-04-01T18:57:22;100555.72;;;10.37;100.00
47104;BME280;32853;52.164;5.400;2023-04-01T19:00:17;100557.25;;;10.23;100.00
47104;BME280;32853;52.164;5.400;2023-04-01T19:05:44;100578.16;;;10.43;100.00
47104;BME280;32853;52.164;5.400;2023-04-01T19:08:35;100566.81;;;10.63;100.00
47104;BME280;32853;52.164;5.400;2023-04-01T19:11:24;100586.03;;;10.21;100.00
47104;BME280;32853;52.164;5.400;2023-04-01T19:14:12;100590.69;;;10.55;100.00
47104;BME280;32853;52.164;5.400;2023-04-01T19:16:58;100585.47;;;10.55;100.00
47104;BME280;32853;52.164;5.400;2023-04-01T19:28:20;100616.06;;;10.53;100.00
47104;BME280;32853;52.164;5.400;2023-04-01T19:30:58;100538.16;;;10.21;100.00
47104;BME280;32853;52.164;5.400;2023-04-01T19:35:59;100648.66;;;10.24;100.00
47104;BME280;32853;52.164;5.400;2023-04-01T19:38:37;100647.91;;;10.21;100.00
47104;BME280;32853;52.164;5.400;2023-04-01T19:43:49;100661.16;;;10.16;100.00
47104;BME280;32853;52.164;5.400;2023-04-01T19:46:31;100671.75;;;10.35;100.00
47104;BME280;32853;52.164;5.400;2023-04-01T19:57:20;100690.88;;;9.92;100.00
47104;BME280;32853;52.164;5.400;2023-04-01T20:04:55;100699.00;;;10.06;100.00
47104;BME280;32853;52.164;5.400;2023-04-01T20:10:02;100708.44;;;9.88;100.00
47104;BME280;32853;52.164;5.400;2023-04-01T20:12:53;100703.78;;;9.73;100.00
47104;BME280;32853;52.164;5.400;2023-04-01T20:15:28;100712.91;;;9.39;100.00
47104;BME280;32853;52.164;5.400;2023-04-01T20:17:59;100719.28;;;9.55;100.00
47104;BME280;32853;52.164;5.400;2023-04-01T20:20:28;100750.22;;;9.41;100.00
47104;BME280;32853;52.164;5.400;2023-04-01T20:23:06;100690.09;;;9.21;100.00
47104;BME280;32853;52.164;5.400;2023-04-01T20:25:46;100694.97;;;9.30;100.00
47104;BME280;32853;52.164;5.400;2023-04-01T20:36:31;100775.84;;;9.55;100.00
47104;BME280;32853;52.164;5.400;2023-04-01T20:39:08;100782.69;;;9.34;100.00
47104;BME280;32853;52.164;5.400;2023-04-01T20:42:04;100784.59;;;9.77;100.00
47104;BME280;32853;52.164;5.400;2023-04-01T20:50:29;100808.03;;;9.55;100.00
47104;BME280;32853;52.164;5.400;2023-04-01T20:53:20;100815.16;;;9.50;100.00
47104;BME280;32853;52.164;5.400;2023-04-01T20:58:33;100825.34;;;9.08;100.00
47104;BME280;32853;52.164;5.400;2023-04-01T21:12:31;100845.22;;;9.37;100.00
47104;BME280;32853;52.164;5.400;2023-04-01T21:18:17;100794.31;;;8.48;100.00
47104;BME280;32853;52.164;5.400;2023-04-01T21:24:23;100871.84;;;8.95;100.00
47104;BME280;32853;52.164;5.400;2023-04-01T21:32:53;100890.78;;;9.02;100.00
47104;BME280;32853;52.164;5.400;2023-04-01T21:54:42;100934.38;;;8.98;100.00
47104;BME280;32853;52.164;5.400;2023-04-01T22:08:03;100938.03;;;8.65;100.00
47104;BME280;32853;52.164;5.400;2023-04-01T22:10:46;100970.03;;;8.98;100.00
47104;BME280;32853;52.164;5.400;2023-04-01T22:13:23;100978.94;;;8.91;100.00
47104;BME280;32853;52.164;5.400;2023-04-01T22:19:17;100951.59;;;8.74;100.00
47104;BME280;32853;52.164;5.400;2023-04-01T22:24:45;100996.97;;;8.98;100.00
47104;BME280;32853;52.164;5.400;2023-04-01T22:35:55;101019.88;;;8.89;100.00
47104;BME280;32853;52.164;5.400;2023-04-01T22:43:56;101035.44;;;8.61;100.00
47104;BME280;32853;52.164;5.400;2023-04-01T22:49:31;101034.00;;;8.51;100.00
47104;BME280;32853;52.164;5.400;2023-04-01T22:52:26;101050.44;;;8.54;100.00
47104;BME280;32853;52.164;5.400;2023-04-01T22:55:17;101052.03;;;8.58;100.00
47104;BME280;32853;52.164;5.400;2023-04-01T23:05:47;101075.56;;;8.57;100.00